createdAt,value
2024-02-19T00:00:02.125Z,17.75
2024-02-19T00:02:41.131Z,15.98
2024-02-19T00:05:10.586Z,14.18
2024-02-19T00:07:39.451Z,17.52
2024-02-19T00:10:09.822Z,19.10
2024-02-19T00:12:39.893Z,13.88
2024-02-19T00:15:09.588Z,14.05
2024-02-19T00:17:38.273Z,14.93
2024-02-19T00:20:08.446Z,14.32
2024-02-19T00:22:37.150Z,12.85
2024-02-19T00:25:06.380Z,12.35
2024-02-19T00:27:34.893Z,12.80
2024-02-19T00:30:05.168Z,12.18
2024-02-19T00:32:34.185Z,11.32
2024-02-19T00:35:02.839Z,12.23
2024-02-19T00:37:31.773Z,13.73
2024-02-19T00:40:00.364Z,25.95
2024-02-19T00:42:29.277Z,25.70
2024-02-19T00:44:57.791Z,35.22
2024-02-19T00:47:27.880Z,41.30
2024-02-19T00:49:57.488Z,43.65
2024-02-19T00:52:26.189Z,37.45
2024-02-19T00:54:54.942Z,37.00
2024-02-19T00:57:23.625Z,16.42
2024-02-19T00:59:52.229Z,10.18
2024-02-19T01:02:20.785Z,8.65
2024-02-19T01:04:54.412Z,9.43
2024-02-19T01:07:23.283Z,13.32
2024-02-19T01:09:51.894Z,11.82
2024-02-19T01:12:20.504Z,11.60
2024-02-19T01:14:49.105Z,13.10
2024-02-19T01:17:17.643Z,16.00
2024-02-19T01:19:46.795Z,17.15
2024-02-19T01:22:17.805Z,19.20
2024-02-19T01:24:47.095Z,31.65
2024-02-19T01:27:15.632Z,33.33
2024-02-19T01:29:44.208Z,40.15
2024-02-19T01:32:13.164Z,42.42
2024-02-19T01:34:42.020Z,31.05
2024-02-19T01:37:10.680Z,35.75
2024-02-19T01:39:40.763Z,34.38
2024-02-19T01:42:09.280Z,29.95
2024-02-19T01:44:38.241Z,34.97
2024-02-19T01:47:07.556Z,24.42
2024-02-19T01:49:39.018Z,26.65
2024-02-19T01:52:09.241Z,22.48
2024-02-19T01:54:40.033Z,21.33
2024-02-19T01:57:10.921Z,26.42
2024-02-19T01:59:40.457Z,29.10
2024-02-19T02:02:09.222Z,30.38
2024-02-19T02:04:39.027Z,28.73
2024-02-19T02:07:08.357Z,23.45
2024-02-19T02:09:36.951Z,28.77
2024-02-19T02:12:05.853Z,25.27
2024-02-19T02:14:35.993Z,37.00
2024-02-19T02:17:05.623Z,38.72
2024-02-19T02:19:34.439Z,35.88
2024-02-19T02:22:03.149Z,31.42
2024-02-19T02:24:31.846Z,30.25
2024-02-19T02:27:01.890Z,36.15
2024-02-19T02:29:30.445Z,26.67
2024-02-19T02:31:59.198Z,27.52
2024-02-19T02:34:27.773Z,21.90
2024-02-19T02:36:56.552Z,19.17
2024-02-19T02:39:25.261Z,17.00
2024-02-19T02:41:53.802Z,16.38
2024-02-19T02:44:23.685Z,12.95
2024-02-19T02:46:52.202Z,17.60
2024-02-19T02:49:20.799Z,12.55
2024-02-19T02:51:49.548Z,16.13
2024-02-19T02:54:18.387Z,14.57
2024-02-19T02:56:48.413Z,16.58
2024-02-19T02:59:16.969Z,12.63
2024-02-19T03:01:47.002Z,14.73
2024-02-19T03:04:15.562Z,19.20
2024-02-19T03:06:44.235Z,10.98
2024-02-19T03:09:13.105Z,12.73
2024-02-19T03:11:42.322Z,11.93
2024-02-19T03:14:14.949Z,11.00
2024-02-19T03:16:43.577Z,12.80
2024-02-19T03:19:14.536Z,14.27
2024-02-19T03:21:43.585Z,15.70
2024-02-19T03:24:12.215Z,9.18
2024-02-19T03:26:42.594Z,9.27
2024-02-19T03:29:15.481Z,9.30
2024-02-19T03:31:45.528Z,9.55
2024-02-19T03:34:15.754Z,10.88
2024-02-19T03:36:47.560Z,9.18
2024-02-19T03:39:16.243Z,9.60
2024-02-19T03:41:44.752Z,11.02
2024-02-19T03:44:13.294Z,11.23
2024-02-19T03:46:41.931Z,10.13
2024-02-19T03:49:10.550Z,11.18
2024-02-19T03:51:40.523Z,12.48
2024-02-19T03:54:10.127Z,15.68
2024-02-19T03:56:39.842Z,16.50
2024-02-19T03:59:08.261Z,30.20
2024-02-19T04:01:38.034Z,35.42
2024-02-19T04:04:06.752Z,29.65
2024-02-19T04:06:35.255Z,31.02
2024-02-19T04:09:05.390Z,35.75
2024-02-19T04:11:33.829Z,26.60
2024-02-19T04:14:02.503Z,29.98
2024-02-19T04:16:31.071Z,26.52
2024-02-19T04:18:59.722Z,27.33
2024-02-19T04:21:28.354Z,19.15
2024-02-19T04:23:56.852Z,19.92
2024-02-19T04:28:57.511Z,18.67
2024-02-19T04:31:26.249Z,20.00
2024-02-19T04:33:55.107Z,13.18
2024-02-19T04:36:23.955Z,18.65
2024-02-19T04:38:52.556Z,20.83
2024-02-19T04:41:21.464Z,21.10
2024-02-19T04:43:51.517Z,43.55
2024-02-19T04:46:21.204Z,32.10
2024-02-19T04:48:49.890Z,31.30
2024-02-19T04:51:18.614Z,25.95
2024-02-19T04:53:47.152Z,24.38
2024-02-19T04:56:16.972Z,23.88
2024-02-19T04:58:45.617Z,29.58
2024-02-19T05:01:15.740Z,32.40
2024-02-19T05:03:44.577Z,26.92
2024-02-19T05:06:13.213Z,23.35
2024-02-19T05:08:41.761Z,28.42
2024-02-19T05:11:10.507Z,20.15
2024-02-19T05:13:39.439Z,32.60
2024-02-19T05:16:08.874Z,34.88
2024-02-19T05:18:38.930Z,49.08
2024-02-19T05:21:07.816Z,29.17
2024-02-19T05:23:36.497Z,22.50
2024-02-19T05:26:09.372Z,27.02
2024-02-19T05:28:39.000Z,23.90
2024-02-19T05:31:07.602Z,18.95
2024-02-19T05:33:36.489Z,16.90
2024-02-19T05:36:07.155Z,17.98
2024-02-19T05:38:39.109Z,30.20
2024-02-19T05:41:08.677Z,24.35
2024-02-19T05:43:37.241Z,51.53
2024-02-19T05:46:07.322Z,25.85
2024-02-19T05:48:35.993Z,24.52
2024-02-19T05:51:06.354Z,33.20
2024-02-19T05:53:35.462Z,35.80
2024-02-19T05:56:04.884Z,28.20
2024-02-19T05:58:33.735Z,33.67
2024-02-19T06:01:02.676Z,26.13
2024-02-19T06:03:31.388Z,28.63
2024-02-19T06:06:00.006Z,27.08
2024-02-19T06:08:30.047Z,26.02
2024-02-19T06:10:58.961Z,24.45
2024-02-19T06:13:27.795Z,31.15
2024-02-19T06:15:56.310Z,34.60
2024-02-19T06:18:25.022Z,26.65
2024-02-19T06:20:53.595Z,28.27
2024-02-19T06:23:22.215Z,23.90
2024-02-19T06:25:52.177Z,21.30
2024-02-19T06:28:21.579Z,24.17
2024-02-19T06:30:50.161Z,24.33
2024-02-19T06:33:19.055Z,21.58
2024-02-19T06:35:47.757Z,17.15
2024-02-19T06:38:16.330Z,21.73
2024-02-19T06:40:44.876Z,21.40
2024-02-19T06:43:17.148Z,14.85
2024-02-19T06:45:46.014Z,22.58
2024-02-19T06:48:14.781Z,20.27
2024-02-19T06:50:43.517Z,20.38
2024-02-19T06:53:12.005Z,19.02
2024-02-19T06:55:40.727Z,18.27
2024-02-19T06:58:09.866Z,21.30
2024-02-19T07:00:40.999Z,26.05
2024-02-19T07:03:09.823Z,19.08
2024-02-19T07:05:38.385Z,24.85
2024-02-19T07:08:08.811Z,22.95
2024-02-19T07:10:37.487Z,28.92
2024-02-19T07:13:06.323Z,24.90
2024-02-19T07:15:34.962Z,27.83
2024-02-19T07:18:05.253Z,23.92
2024-02-19T07:20:33.794Z,23.70
2024-02-19T07:23:02.739Z,21.90
2024-02-19T07:25:31.332Z,15.27
2024-02-19T07:27:59.896Z,21.88
2024-02-19T07:30:28.421Z,21.33
2024-02-19T07:32:57.060Z,18.40
2024-02-19T07:35:27.041Z,8.90
2024-02-19T07:37:55.587Z,6.55
2024-02-19T07:40:24.271Z,9.07
2024-02-19T07:42:52.895Z,10.02
2024-02-19T07:45:21.465Z,9.52
2024-02-19T07:47:50.153Z,7.18
2024-02-19T07:50:18.783Z,7.80
2024-02-19T07:52:49.007Z,9.68
2024-02-19T07:55:17.839Z,9.65
2024-02-19T07:57:47.063Z,7.57
2024-02-19T08:00:16.131Z,9.82
2024-02-19T08:02:44.653Z,7.88
2024-02-19T08:05:13.540Z,5.72
2024-02-19T08:07:42.251Z,4.70
2024-02-19T08:10:12.567Z,3.95
2024-02-19T08:12:43.391Z,6.78
2024-02-19T08:15:12.778Z,7.07
2024-02-19T08:17:41.344Z,11.48
2024-02-19T08:20:11.457Z,4.57
2024-02-19T08:22:40.864Z,3.60
2024-02-19T08:25:12.354Z,5.20
2024-02-19T08:27:41.217Z,6.07
2024-02-19T08:30:10.517Z,5.82
2024-02-19T08:32:39.218Z,6.70
2024-02-19T08:35:08.059Z,4.32
2024-02-19T08:37:37.092Z,4.40
2024-02-19T08:40:06.701Z,7.05
2024-02-19T08:42:37.872Z,7.07
2024-02-19T08:45:07.431Z,6.38
2024-02-19T08:47:37.898Z,4.85
2024-02-19T08:50:07.541Z,4.57
2024-02-19T08:52:36.068Z,6.40
2024-02-19T08:55:04.854Z,3.60
2024-02-19T08:57:33.400Z,4.43
2024-02-19T09:00:05.821Z,4.70
2024-02-19T09:02:35.478Z,4.25
2024-02-19T09:05:06.014Z,4.38
2024-02-19T09:07:34.853Z,5.50
2024-02-19T09:10:03.371Z,3.13
2024-02-19T09:12:32.368Z,4.50
2024-02-19T09:15:04.021Z,3.85
2024-02-19T09:17:33.061Z,3.45
2024-02-19T09:20:01.779Z,5.53
2024-02-19T09:22:32.224Z,5.05
2024-02-19T09:25:02.240Z,3.33
2024-02-19T09:27:32.019Z,2.42
2024-02-19T09:30:00.613Z,5.25
2024-02-19T09:32:30.643Z,5.78
2024-02-19T09:34:59.316Z,3.60
2024-02-19T09:37:27.958Z,3.70
2024-02-19T09:39:59.864Z,3.42
2024-02-19T09:42:29.165Z,3.13
2024-02-19T09:44:58.299Z,3.63
2024-02-19T09:47:29.162Z,4.22
2024-02-19T09:50:00.511Z,2.22
2024-02-19T09:52:30.477Z,4.10
2024-02-19T09:55:00.103Z,3.63
2024-02-19T09:57:29.591Z,3.67
2024-02-19T10:00:04.228Z,3.75
2024-02-19T10:02:35.649Z,3.88
2024-02-19T10:05:08.768Z,3.88
2024-02-19T10:07:37.690Z,3.65
2024-02-19T10:10:07.369Z,3.78
2024-02-19T10:12:36.058Z,2.55
2024-02-19T10:15:04.899Z,5.20
2024-02-19T10:17:33.555Z,3.42
2024-02-19T10:20:02.892Z,5.18
2024-02-19T10:22:34.242Z,5.00
2024-02-19T10:25:05.302Z,3.55
2024-02-19T10:27:33.899Z,4.43
2024-02-19T10:30:02.582Z,4.00
2024-02-19T10:32:32.783Z,3.35
2024-02-19T10:35:01.531Z,3.05
2024-02-19T10:37:32.121Z,4.28
2024-02-19T10:40:02.657Z,4.15
2024-02-19T10:42:31.913Z,3.35
2024-02-19T10:45:01.110Z,4.78
2024-02-19T10:47:29.830Z,3.92
2024-02-19T10:50:00.670Z,4.53
2024-02-19T10:52:30.066Z,5.80
2024-02-19T10:55:06.062Z,11.07
2024-02-19T10:57:51.024Z,5.57
2024-02-19T11:00:21.051Z,6.07
2024-02-19T11:02:49.560Z,6.30
2024-02-19T11:05:18.808Z,9.82
2024-02-19T11:07:47.984Z,9.60
2024-02-19T11:10:16.802Z,4.93
2024-02-19T11:12:46.455Z,4.30
2024-02-19T11:15:18.389Z,7.07
2024-02-19T11:17:50.071Z,5.78
2024-02-19T11:20:27.010Z,5.55
2024-02-19T11:23:00.271Z,3.35
2024-02-19T11:25:29.097Z,3.47
2024-02-19T11:27:58.124Z,3.65
2024-02-19T11:30:30.367Z,4.25
2024-02-19T11:33:02.839Z,4.25
2024-02-19T11:35:34.463Z,3.28
2024-02-19T11:38:05.363Z,5.13
2024-02-19T11:40:34.426Z,6.85
2024-02-19T11:43:05.308Z,7.50
2024-02-19T11:45:36.361Z,5.57
2024-02-19T11:48:05.840Z,4.88
2024-02-19T11:50:34.456Z,5.60
2024-02-19T11:53:05.724Z,7.03
2024-02-19T11:55:35.441Z,4.15
2024-02-19T11:58:07.073Z,5.05
2024-02-19T12:00:37.826Z,5.32
2024-02-19T12:03:07.297Z,4.93
2024-02-19T12:05:35.920Z,7.05
2024-02-19T12:08:06.531Z,3.38
2024-02-19T12:10:35.192Z,4.82
2024-02-19T12:13:03.962Z,4.53
2024-02-19T12:15:32.531Z,7.88
2024-02-19T12:18:02.665Z,5.63
2024-02-19T12:20:31.404Z,3.05
2024-02-19T12:22:59.997Z,6.65
2024-02-19T12:25:28.812Z,6.28
2024-02-19T12:27:57.444Z,4.32
2024-02-19T12:30:26.312Z,4.63
2024-02-19T12:32:55.767Z,7.95
2024-02-19T12:35:26.170Z,6.20
2024-02-19T12:37:55.165Z,12.85
2024-02-19T12:40:23.943Z,12.43
2024-02-19T12:42:52.947Z,9.65
2024-02-19T12:45:21.791Z,8.40
2024-02-19T12:47:50.502Z,5.95
2024-02-19T12:50:19.114Z,6.40
2024-02-19T12:52:49.796Z,6.68
2024-02-19T12:55:19.728Z,6.65
2024-02-19T12:57:48.669Z,8.07
2024-02-19T13:00:17.731Z,6.80
2024-02-19T13:02:47.052Z,5.03
2024-02-19T13:05:16.189Z,5.18
2024-02-19T13:07:49.122Z,4.90
2024-02-19T13:10:19.457Z,7.13
2024-02-19T13:12:50.862Z,6.55
2024-02-19T13:15:21.231Z,7.72
2024-02-19T13:17:50.165Z,5.80
2024-02-19T13:20:19.111Z,4.72
2024-02-19T13:22:48.001Z,6.05
2024-02-19T13:25:17.263Z,5.50
2024-02-19T13:27:49.522Z,7.22
2024-02-19T13:30:19.075Z,5.43
2024-02-19T13:32:49.837Z,8.90
2024-02-19T13:35:19.677Z,9.98
2024-02-19T13:37:48.817Z,8.95
2024-02-19T13:40:17.751Z,10.20
2024-02-19T13:42:46.924Z,6.53
2024-02-19T13:45:17.165Z,8.95
2024-02-19T13:48:02.040Z,9.65
2024-02-19T13:50:31.874Z,8.05
2024-02-19T13:53:03.501Z,6.32
2024-02-19T13:55:32.212Z,9.20
2024-02-19T13:58:02.426Z,9.15
2024-02-19T14:00:32.708Z,7.85
2024-02-19T14:03:01.500Z,9.57
2024-02-19T14:05:32.247Z,13.02
2024-02-19T14:08:01.047Z,12.48
2024-02-19T14:10:30.048Z,10.95
2024-02-19T14:12:58.865Z,13.70
2024-02-19T14:15:27.406Z,13.18
2024-02-19T14:17:57.502Z,14.00
2024-02-19T14:20:26.405Z,14.43
2024-02-19T14:22:55.822Z,12.77
2024-02-19T14:25:24.503Z,13.68
2024-02-19T14:27:55.352Z,13.02
2024-02-19T14:30:24.046Z,13.35
2024-02-19T14:32:52.665Z,14.55
2024-02-19T14:35:23.305Z,13.73
2024-02-19T14:37:52.243Z,13.85
2024-02-19T14:40:21.040Z,15.50
2024-02-19T14:42:50.709Z,13.50
2024-02-19T14:45:19.906Z,14.07
2024-02-19T14:47:49.578Z,14.60
2024-02-19T14:50:18.738Z,15.63
2024-02-19T14:52:48.719Z,16.23
2024-02-19T14:55:18.477Z,12.93
2024-02-19T14:57:48.645Z,13.05
2024-02-19T15:00:23.192Z,11.25
2024-02-19T15:02:52.542Z,9.00
2024-02-19T15:05:23.974Z,9.57
2024-02-19T15:07:56.314Z,13.85
2024-02-19T15:10:28.818Z,9.88
2024-02-19T15:13:00.506Z,8.82
2024-02-19T15:15:29.402Z,10.75
2024-02-19T15:17:58.443Z,7.45
2024-02-19T15:20:27.316Z,9.70
2024-02-19T15:22:57.265Z,9.85
2024-02-19T15:25:26.242Z,9.23
2024-02-19T15:27:54.842Z,9.70
2024-02-19T15:30:23.698Z,8.88
2024-02-19T15:32:52.507Z,6.53
2024-02-19T15:35:21.188Z,9.95
2024-02-19T15:37:49.833Z,7.20
2024-02-19T15:40:21.610Z,7.65
2024-02-19T15:42:50.298Z,9.50
2024-02-19T15:45:19.109Z,7.80
2024-02-19T15:47:48.054Z,6.95
2024-02-19T15:50:17.506Z,8.13
2024-02-19T15:52:55.264Z,7.03
2024-02-19T15:55:32.213Z,8.50
2024-02-19T15:58:01.102Z,10.07
2024-02-19T16:00:30.974Z,8.52
2024-02-19T16:02:59.688Z,13.90
2024-02-19T16:05:28.593Z,11.48
2024-02-19T16:07:58.076Z,11.38
2024-02-19T16:10:26.883Z,11.45
2024-02-19T16:12:57.372Z,10.00
2024-02-19T16:15:26.252Z,9.13
2024-02-19T16:17:55.200Z,14.73
2024-02-19T16:20:24.078Z,8.15
2024-02-19T16:22:55.002Z,8.15
2024-02-19T16:25:24.414Z,10.05
2024-02-19T16:27:54.521Z,9.00
2024-02-19T16:30:25.100Z,9.30
2024-02-19T16:32:53.670Z,8.15
2024-02-19T16:35:22.423Z,8.48
2024-02-19T16:37:51.139Z,9.60
2024-02-19T16:40:21.766Z,9.23
2024-02-19T16:42:50.651Z,7.63
2024-02-19T16:45:19.595Z,10.45
2024-02-19T16:47:49.621Z,7.53
2024-02-19T16:50:18.208Z,8.20
2024-02-19T16:52:47.415Z,7.35
2024-02-19T16:55:15.963Z,8.95
2024-02-19T16:57:44.468Z,9.18
2024-02-19T17:00:14.007Z,9.93
2024-02-19T17:02:42.753Z,9.77
2024-02-19T17:05:14.122Z,8.30
2024-02-19T17:07:43.043Z,7.57
2024-02-19T17:10:13.187Z,8.90
2024-02-19T17:12:44.408Z,7.03
2024-02-19T17:15:14.206Z,8.77
2024-02-19T17:17:42.884Z,11.75
2024-02-19T17:20:14.085Z,7.00
2024-02-19T17:22:42.740Z,9.73
2024-02-19T17:25:12.851Z,8.68
2024-02-19T17:27:41.527Z,7.38
2024-02-19T17:30:11.531Z,13.23
2024-02-19T17:32:40.375Z,9.77
2024-02-19T17:35:10.261Z,11.82
2024-02-19T17:37:40.587Z,10.80
2024-02-19T17:40:12.515Z,11.23
2024-02-19T17:42:41.217Z,11.07
2024-02-19T17:45:10.684Z,7.38
2024-02-19T17:47:39.351Z,8.52
2024-02-19T17:50:10.627Z,10.00
2024-02-19T17:52:41.390Z,7.03
2024-02-19T17:55:10.829Z,6.28
2024-02-19T17:57:40.255Z,6.72
2024-02-19T18:00:11.176Z,7.53
2024-02-19T18:02:42.974Z,9.18
2024-02-19T18:05:11.946Z,11.88
2024-02-19T18:07:42.012Z,7.95
2024-02-19T18:10:11.482Z,10.05
2024-02-19T18:12:40.058Z,8.07
2024-02-19T18:15:09.634Z,6.80
2024-02-19T18:17:38.261Z,10.55
2024-02-19T18:20:08.798Z,8.13
2024-02-19T18:22:37.445Z,9.10
2024-02-19T18:25:09.228Z,10.80
2024-02-19T18:27:38.119Z,8.57
2024-02-19T18:30:10.731Z,10.55
2024-02-19T18:32:41.822Z,11.07
2024-02-19T18:35:11.333Z,10.15
2024-02-19T18:37:40.482Z,9.38
2024-02-19T18:40:11.440Z,8.88
2024-02-19T18:42:42.672Z,10.25
2024-02-19T18:45:11.913Z,13.75
2024-02-19T18:47:42.039Z,15.45
2024-02-19T18:50:11.466Z,9.02
2024-02-19T18:52:40.387Z,17.05
2024-02-19T18:55:11.129Z,13.75
2024-02-19T18:57:40.040Z,12.10
2024-02-19T19:00:11.142Z,13.18
2024-02-19T19:02:41.581Z,13.15
2024-02-19T19:05:10.533Z,12.02
2024-02-19T19:07:39.314Z,15.73
2024-02-19T19:10:09.096Z,22.25
2024-02-19T19:12:39.065Z,16.13
2024-02-19T19:15:08.987Z,13.63
2024-02-19T19:17:37.702Z,16.48
2024-02-19T19:20:10.649Z,11.63
2024-02-19T19:22:40.226Z,10.15
2024-02-19T19:25:09.710Z,10.48
2024-02-19T19:27:39.792Z,7.90
2024-02-19T19:30:09.721Z,11.65
2024-02-19T19:32:38.246Z,7.65
2024-02-19T19:35:07.924Z,7.70
2024-02-19T19:37:36.636Z,9.27
2024-02-19T19:40:07.450Z,8.93
2024-02-19T19:42:37.011Z,8.88
2024-02-19T19:45:08.525Z,7.50
2024-02-19T19:47:37.183Z,7.18
2024-02-19T19:50:07.110Z,6.40
2024-02-19T19:52:36.485Z,7.20
2024-02-19T19:55:05.629Z,9.75
2024-02-19T19:57:34.312Z,5.70
2024-02-19T20:00:02.873Z,6.32
2024-02-19T20:02:40.693Z,7.10
2024-02-19T20:05:12.564Z,12.20
2024-02-19T20:07:42.650Z,8.75
2024-02-19T20:10:15.199Z,9.75
2024-02-19T20:12:44.281Z,8.85
2024-02-19T20:15:14.299Z,8.48
2024-02-19T20:17:44.367Z,8.90
2024-02-19T20:20:13.312Z,16.08
2024-02-19T20:22:42.151Z,9.27
2024-02-19T20:25:11.689Z,10.15
2024-02-19T20:27:40.493Z,7.25
2024-02-19T20:30:12.284Z,12.98
2024-02-19T20:32:41.260Z,6.68
2024-02-19T20:35:11.617Z,9.13
2024-02-19T20:37:40.589Z,11.60
2024-02-19T20:40:10.855Z,10.75
2024-02-19T20:42:39.797Z,9.65
2024-02-19T20:45:09.186Z,8.68
2024-02-19T20:47:41.112Z,9.90
2024-02-19T20:50:13.612Z,8.27
2024-02-19T20:52:46.071Z,10.57
2024-02-19T20:55:15.291Z,8.27
2024-02-19T20:57:45.342Z,8.50
2024-02-19T21:00:14.675Z,12.85
2024-02-19T21:02:43.225Z,9.90
2024-02-19T21:05:14.925Z,10.73
2024-02-19T21:07:44.535Z,6.55
2024-02-19T21:10:14.641Z,8.98
2024-02-19T21:12:43.806Z,8.80
2024-02-19T21:15:12.492Z,6.88
2024-02-19T21:17:41.021Z,6.85
2024-02-19T21:20:12.135Z,8.48
2024-02-19T21:22:42.589Z,7.05
2024-02-19T21:25:11.777Z,7.00
2024-02-19T21:27:40.678Z,6.60
2024-02-19T21:30:10.468Z,8.95
2024-02-19T21:32:39.449Z,10.60
2024-02-19T21:35:11.724Z,6.10
2024-02-19T21:37:41.936Z,6.78
2024-02-19T21:40:11.857Z,8.25
2024-02-19T21:42:40.408Z,10.43
2024-02-19T21:45:10.706Z,5.72
2024-02-19T21:47:39.810Z,8.38
2024-02-19T21:50:10.967Z,6.25
2024-02-19T21:52:41.925Z,6.65
2024-02-19T21:55:11.393Z,6.75
2024-02-19T21:57:39.945Z,7.07
2024-02-19T22:00:12.111Z,7.35
2024-02-19T22:02:41.167Z,8.02
2024-02-19T22:05:10.476Z,6.38
2024-02-19T22:07:42.361Z,6.13
2024-02-19T22:10:12.236Z,7.50
2024-02-19T22:12:41.936Z,9.07
2024-02-19T22:15:11.901Z,11.00
2024-02-19T22:17:40.568Z,10.13
2024-02-19T22:20:10.884Z,6.65
2024-02-19T22:22:40.692Z,7.65
2024-02-19T22:25:11.154Z,5.65
2024-02-19T22:27:39.841Z,5.70
2024-02-19T22:30:09.541Z,7.05
2024-02-19T22:32:38.274Z,6.43
2024-02-19T22:35:09.299Z,5.03
2024-02-19T22:37:38.150Z,6.25
2024-02-19T22:40:08.238Z,7.78
2024-02-19T22:42:38.363Z,9.45
2024-02-19T22:45:08.267Z,7.90
2024-02-19T22:47:38.132Z,6.43
2024-02-19T22:50:08.617Z,7.07
2024-02-19T22:52:39.710Z,8.55
2024-02-19T22:55:10.439Z,8.10
2024-02-19T22:57:40.587Z,5.00
2024-02-19T23:00:24.045Z,7.60
2024-02-19T23:02:52.680Z,6.50
2024-02-19T23:05:21.604Z,9.25
2024-02-19T23:07:50.441Z,6.25
2024-02-19T23:10:19.035Z,10.80
2024-02-19T23:12:49.086Z,8.05
2024-02-19T23:15:17.740Z,6.07
2024-02-19T23:17:46.508Z,7.05
2024-02-19T23:20:15.858Z,10.02
2024-02-19T23:22:47.271Z,6.28
2024-02-19T23:25:16.272Z,3.95
2024-02-19T23:27:46.369Z,6.25
2024-02-19T23:30:16.616Z,5.57
2024-02-19T23:32:45.338Z,7.22
2024-02-19T23:35:14.060Z,9.27
2024-02-19T23:37:42.638Z,5.55
2024-02-19T23:40:18.291Z,5.43
2024-02-19T23:42:51.712Z,6.43
2024-02-19T23:45:21.900Z,6.75
2024-02-19T23:47:50.562Z,4.38
2024-02-19T23:50:19.293Z,4.38
2024-02-19T23:52:47.932Z,5.30
2024-02-19T23:55:18.176Z,6.85
2024-02-19T23:57:46.914Z,4.00
